Time;durP1;ratioP1;P1;durP2;ratioP2;P2;SDS_P1;SDS_P2;PMS_P1;PMS_P2;Temp;Humidity;BMP_temperature;BMP_pressure;BME280_temperature;BME280_humidity;BME280_pressure;Samples;Min_cycle;Max_cycle;Signal;HPM_P1;HPM_P2
2023/06/27 00:01:21;;;;;;;2.50;1.20;;;;;;;;;;5116210;28;20513;-64
2023/06/27 00:03:51;;;;;;;4.00;1.53;;;;;;;;;;5121768;28;21025;-64
2023/06/27 00:06:19;;;;;;;2.70;1.47;;;;;;;;;;5122873;28;20521;-63
2023/06/27 00:08:46;;;;;;;2.53;1.20;;;;;;;;;;5122130;28;20478;-64
2023/06/27 00:11:14;;;;;;;1.97;1.40;;;;;;;;;;5117790;28;20512;-64
2023/06/27 00:13:42;;;;;;;4.50;1.40;;;;;;;;;;5122186;28;20475;-64
2023/06/27 00:16:12;;;;;;;4.17;1.60;;;;;;;;;;5123049;28;20621;-64
2023/06/27 00:18:39;;;;;;;2.20;0.93;;;;;;;;;;5123575;28;20538;-65
2023/06/27 00:21:06;;;;;;;3.77;1.33;;;;;;;;;;5120159;28;21063;-65
2023/06/27 00:23:34;;;;;;;3.63;1.57;;;;;;;;;;5119253;28;20862;-65
2023/06/27 00:26:00;;;;;;;4.00;1.37;;;;;;;;;;5119981;28;20450;-65
2023/06/27 00:28:27;;;;;;;6.10;1.47;;;;;;;;;;5123045;28;20473;-65
2023/06/27 00:30:55;;;;;;;3.27;1.90;;;;;;;;;;5123107;28;20458;-64
2023/06/27 00:33:21;;;;;;;3.80;2.37;;;;;;;;;;5120426;28;20522;-65
2023/06/27 00:35:48;;;;;;;3.40;1.30;;;;;;;;;;5123318;28;20450;-65
2023/06/27 00:38:14;;;;;;;2.40;1.30;;;;;;;;;;5118170;28;20882;-65
2023/06/27 00:40:40;;;;;;;2.73;1.60;;;;;;;;;;5123325;28;20528;-65
2023/06/27 00:43:07;;;;;;;7.90;1.90;;;;;;;;;;5118582;28;20530;-63
2023/06/27 00:45:33;;;;;;;3.13;1.17;;;;;;;;;;5119662;28;20454;-64
2023/06/27 00:48:02;;;;;;;2.10;1.23;;;;;;;;;;5120008;28;20462;-65
2023/06/27 00:50:28;;;;;;;4.33;1.30;;;;;;;;;;5122975;28;20545;-62
2023/06/27 00:52:55;;;;;;;4.03;1.53;;;;;;;;;;5123301;28;20456;-65
2023/06/27 00:55:22;;;;;;;3.90;1.40;;;;;;;;;;5119938;28;20498;-62
2023/06/27 00:57:49;;;;;;;2.73;1.83;;;;;;;;;;5122011;28;20478;-67
2023/06/27 01:00:16;;;;;;;3.00;1.47;;;;;;;;;;5120023;28;20499;-68
2023/06/27 01:02:45;;;;;;;2.20;1.50;;;;;;;;;;5117514;28;20482;-71
2023/06/27 01:05:13;;;;;;;2.23;1.50;;;;;;;;;;5118539;28;20451;-69
2023/06/27 01:07:42;;;;;;;5.00;1.60;;;;;;;;;;5121875;28;20537;-69
2023/06/27 01:10:12;;;;;;;3.50;1.53;;;;;;;;;;5122811;28;20543;-70
2023/06/27 01:12:44;;;;;;;4.90;1.63;;;;;;;;;;5122603;28;20521;-69
2023/06/27 01:15:10;;;;;;;7.07;1.87;;;;;;;;;;5121625;28;20480;-68
2023/06/27 01:17:37;;;;;;;5.77;2.27;;;;;;;;;;5119009;28;20522;-69
2023/06/27 01:20:04;;;;;;;2.73;1.30;;;;;;;;;;5115135;28;20454;-71
2023/06/27 01:22:33;;;;;;;3.73;1.60;;;;;;;;;;5117751;28;21101;-71
2023/06/27 01:25:02;;;;;;;3.93;1.77;;;;;;;;;;5119190;28;20696;-70
2023/06/27 01:27:29;;;;;;;6.00;1.80;;;;;;;;;;5117203;28;20453;-71
2023/06/27 01:29:55;;;;;;;4.80;2.87;;;;;;;;;;5121727;28;20489;-68
2023/06/27 01:32:25;;;;;;;3.50;1.40;;;;;;;;;;5117578;28;20478;-65
2023/06/27 01:34:57;;;;;;;5.50;2.60;;;;;;;;;;5122178;28;20481;-69
2023/06/27 01:37:26;;;;;;;2.40;1.80;;;;;;;;;;5122500;28;20454;-70
2023/06/27 01:39:54;;;;;;;3.90;2.00;;;;;;;;;;5121419;28;20501;-70
2023/06/27 01:42:24;;;;;;;3.30;1.93;;;;;;;;;;5112252;28;20547;-70
2023/06/27 01:44:51;;;;;;;2.60;1.80;;;;;;;;;;5120176;28;20611;-70
2023/06/27 01:47:18;;;;;;;2.03;1.70;;;;;;;;;;5121114;28;20458;-66
2023/06/27 01:49:45;;;;;;;9.13;2.83;;;;;;;;;;5119074;28;20816;-69
2023/06/27 01:52:12;;;;;;;5.70;1.90;;;;;;;;;;5121333;28;20478;-71
2023/06/27 01:54:40;;;;;;;2.83;2.20;;;;;;;;;;5118639;28;20954;-71
2023/06/27 01:57:06;;;;;;;3.83;2.00;;;;;;;;;;5117297;28;20966;-70
2023/06/27 01:59:34;;;;;;;4.70;2.10;;;;;;;;;;5112867;28;20475;-68
2023/06/27 02:02:00;;;;;;;7.63;1.90;;;;;;;;;;5112542;28;20537;-70
2023/06/27 02:04:27;;;;;;;6.30;2.20;;;;;;;;;;5120643;28;20604;-71
2023/06/27 02:06:53;;;;;;;2.33;1.80;;;;;;;;;;5121813;28;20514;-69
2023/06/27 02:09:19;;;;;;;3.00;1.90;;;;;;;;;;5120797;28;20478;-67
2023/06/27 02:11:46;;;;;;;3.93;2.17;;;;;;;;;;5120002;28;20534;-67
2023/06/27 02:14:13;;;;;;;3.17;2.20;;;;;;;;;;5116102;28;20451;-71
2023/06/27 02:16:40;;;;;;;3.60;1.90;;;;;;;;;;5117259;28;20446;-69
2023/06/27 02:19:07;;;;;;;6.80;2.30;;;;;;;;;;5116077;28;20541;-66
2023/06/27 02:21:33;;;;;;;5.23;1.90;;;;;;;;;;5116975;28;20569;-69
2023/06/27 02:23:59;;;;;;;4.57;2.40;;;;;;;;;;5113580;28;20518;-69
2023/06/27 02:26:26;;;;;;;2.90;2.17;;;;;;;;;;5106116;28;20889;-68
2023/06/27 02:28:53;;;;;;;2.77;1.80;;;;;;;;;;5109101;28;20457;-69
2023/06/27 02:31:19;;;;;;;4.20;1.90;;;;;;;;;;5120247;28;20474;-71
2023/06/27 02:33:47;;;;;;;4.77;1.80;;;;;;;;;;5120763;28;20466;-70
2023/06/27 02:36:13;;;;;;;5.43;1.90;;;;;;;;;;5119493;28;20449;-72
2023/06/27 02:38:40;;;;;;;4.17;2.27;;;;;;;;;;5116947;28;20450;-71
2023/06/27 02:41:06;;;;;;;4.13;2.17;;;;;;;;;;5117989;28;20534;-72
2023/06/27 02:43:33;;;;;;;3.40;2.07;;;;;;;;;;5119392;28;20848;-72
2023/06/27 02:45:59;;;;;;;4.20;2.17;;;;;;;;;;5120679;28;20924;-71
2023/06/27 02:48:26;;;;;;;6.17;1.80;;;;;;;;;;5116177;28;20458;-68
2023/06/27 02:50:53;;;;;;;3.83;1.80;;;;;;;;;;5117288;28;20526;-70
2023/06/27 02:53:20;;;;;;;2.33;1.73;;;;;;;;;;5122070;28;20472;-68
2023/06/27 02:55:46;;;;;;;4.60;2.47;;;;;;;;;;5116997;28;20661;-69
2023/06/27 02:58:13;;;;;;;2.70;1.97;;;;;;;;;;5120792;28;20450;-71
2023/06/27 03:00:39;;;;;;;4.13;2.10;;;;;;;;;;5121176;28;20518;-70
2023/06/27 03:03:05;;;;;;;7.63;2.47;;;;;;;;;;5113942;28;21009;-71
2023/06/27 03:05:32;;;;;;;4.00;2.43;;;;;;;;;;5119987;28;20466;-68
2023/06/27 03:08:00;;;;;;;3.90;2.17;;;;;;;;;;5116849;28;20475;-70
2023/06/27 03:10:26;;;;;;;3.17;2.37;;;;;;;;;;5111776;28;20998;-70
2023/06/27 03:12:52;;;;;;;2.20;1.80;;;;;;;;;;5121078;28;20458;-71
2023/06/27 03:15:19;;;;;;;4.27;1.93;;;;;;;;;;5112908;28;20459;-71
2023/06/27 03:17:45;;;;;;;3.57;2.10;;;;;;;;;;5119125;28;20456;-70
2023/06/27 03:20:12;;;;;;;5.90;2.70;;;;;;;;;;5118206;28;20536;-71
2023/06/27 03:22:38;;;;;;;7.03;3.13;;;;;;;;;;5117635;28;20941;-71
2023/06/27 03:25:10;;;;;;;5.20;2.60;;;;;;;;;;5114089;28;20443;-71
2023/06/27 03:27:36;;;;;;;4.80;2.33;;;;;;;;;;5116376;28;20506;-70
2023/06/27 03:30:03;;;;;;;2.57;2.10;;;;;;;;;;5111934;28;20443;-71
2023/06/27 03:32:29;;;;;;;3.43;2.13;;;;;;;;;;5119697;28;20457;-70
2023/06/27 03:34:56;;;;;;;2.80;2.60;;;;;;;;;;5116732;28;20902;-71
2023/06/27 03:37:22;;;;;;;5.23;2.70;;;;;;;;;;5121914;28;20541;-72
2023/06/27 03:39:49;;;;;;;6.10;2.63;;;;;;;;;;5114593;28;20450;-72
2023/06/27 03:42:16;;;;;;;4.33;2.57;;;;;;;;;;5120370;28;20482;-71
2023/06/27 03:44:45;;;;;;;7.20;2.70;;;;;;;;;;5121650;28;20481;-71
2023/06/27 03:47:12;;;;;;;3.67;2.00;;;;;;;;;;5120752;28;20442;-69
2023/06/27 03:49:38;;;;;;;2.47;1.90;;;;;;;;;;5119713;28;20480;-71
2023/06/27 03:52:05;;;;;;;3.83;2.10;;;;;;;;;;5117532;28;20497;-69
2023/06/27 03:54:31;;;;;;;5.10;2.20;;;;;;;;;;5120358;28;21045;-70
2023/06/27 03:56:57;;;;;;;5.20;2.10;;;;;;;;;;5116427;28;20514;-70
2023/06/27 03:59:25;;;;;;;6.30;2.93;;;;;;;;;;5116800;28;20442;-70
2023/06/27 04:01:52;;;;;;;3.87;2.37;;;;;;;;;;5117035;28;20545;-70
2023/06/27 04:04:18;;;;;;;4.10;2.70;;;;;;;;;;5119167;28;20549;-70
2023/06/27 04:06:44;;;;;;;4.30;1.80;;;;;;;;;;5116522;28;20517;-69
2023/06/27 04:09:11;;;;;;;4.13;2.17;;;;;;;;;;5118729;28;20472;-71
2023/06/27 04:11:37;;;;;;;5.20;2.87;;;;;;;;;;5117750;28;20533;-70
2023/06/27 04:14:03;;;;;;;6.60;2.23;;;;;;;;;;5121822;28;21002;-71
2023/06/27 04:16:31;;;;;;;4.80;2.67;;;;;;;;;;5113956;28;20470;-71
2023/06/27 04:18:57;;;;;;;6.63;2.80;;;;;;;;;;5118117;28;20455;-71
2023/06/27 04:21:24;;;;;;;10.00;2.60;;;;;;;;;;5122138;28;20453;-70
2023/06/27 04:23:51;;;;;;;4.70;2.27;;;;;;;;;;5115856;28;20509;-69
2023/06/27 04:26:17;;;;;;;5.00;2.53;;;;;;;;;;5113942;28;20760;-69
2023/06/27 04:28:44;;;;;;;3.03;2.03;;;;;;;;;;5121992;28;20466;-69
2023/06/27 04:31:11;;;;;;;4.63;2.50;;;;;;;;;;5117021;28;20699;-70
2023/06/27 04:33:39;;;;;;;4.87;2.40;;;;;;;;;;5117376;28;20520;-70
2023/06/27 04:36:06;;;;;;;4.40;2.33;;;;;;;;;;5120217;28;20481;-67
2023/06/27 04:38:37;;;;;;;6.37;2.00;;;;;;;;;;5116243;28;20497;-67
2023/06/27 04:41:04;;;;;;;3.63;2.20;;;;;;;;;;5120181;28;20471;-66
2023/06/27 04:43:32;;;;;;;3.53;2.00;;;;;;;;;;5123682;28;20516;-65
2023/06/27 04:45:58;;;;;;;9.73;2.60;;;;;;;;;;5122544;28;20454;-65
2023/06/27 04:48:24;;;;;;;3.67;2.40;;;;;;;;;;5121215;28;20516;-65
2023/06/27 04:50:53;;;;;;;4.13;1.90;;;;;;;;;;5121936;28;20458;-66
2023/06/27 04:53:20;;;;;;;5.50;2.33;;;;;;;;;;5124669;28;20450;-66
2023/06/27 04:55:46;;;;;;;3.17;2.10;;;;;;;;;;5119140;28;20820;-65
2023/06/27 04:58:13;;;;;;;3.57;2.00;;;;;;;;;;5105877;28;20451;-65
2023/06/27 05:00:39;;;;;;;4.33;2.70;;;;;;;;;;5123777;28;20464;-66
2023/06/27 05:03:05;;;;;;;9.33;2.47;;;;;;;;;;5117104;28;20572;-66
2023/06/27 05:05:33;;;;;;;4.93;2.13;;;;;;;;;;5118796;28;20478;-65
2023/06/27 05:08:01;;;;;;;4.63;2.60;;;;;;;;;;5122969;28;20482;-65
2023/06/27 05:10:27;;;;;;;4.27;2.83;;;;;;;;;;5122414;28;20474;-68
2023/06/27 05:12:54;;;;;;;3.93;2.53;;;;;;;;;;5122566;28;20466;-67
2023/06/27 05:15:21;;;;;;;6.17;2.37;;;;;;;;;;5121906;28;20509;-68
2023/06/27 05:17:49;;;;;;;6.53;2.03;;;;;;;;;;5125616;27;20521;-67
2023/06/27 05:20:15;;;;;;;5.47;2.23;;;;;;;;;;5116247;28;20515;-67
2023/06/27 05:22:42;;;;;;;5.80;2.53;;;;;;;;;;5121915;28;20485;-67
2023/06/27 05:25:10;;;;;;;7.33;3.00;;;;;;;;;;5124021;28;20538;-68
2023/06/27 05:27:36;;;;;;;4.30;2.30;;;;;;;;;;5113628;28;20470;-67
2023/06/27 05:30:03;;;;;;;5.97;2.67;;;;;;;;;;5109489;28;21018;-67
2023/06/27 05:32:29;;;;;;;4.10;2.70;;;;;;;;;;5116708;28;20443;-68
2023/06/27 05:34:56;;;;;;;5.70;2.90;;;;;;;;;;5121148;28;20481;-67
2023/06/27 05:37:22;;;;;;;5.10;3.00;;;;;;;;;;5109871;28;20519;-67
2023/06/27 05:39:48;;;;;;;5.80;2.83;;;;;;;;;;5113340;28;20553;-72
2023/06/27 05:42:16;;;;;;;5.47;3.10;;;;;;;;;;5121662;28;20585;-71
2023/06/27 05:44:42;;;;;;;8.70;2.83;;;;;;;;;;5120015;28;20517;-72
2023/06/27 05:47:09;;;;;;;5.03;2.33;;;;;;;;;;5119684;28;20503;-71
2023/06/27 05:49:35;;;;;;;6.63;3.00;;;;;;;;;;5121078;28;20485;-70
2023/06/27 05:52:02;;;;;;;5.73;3.33;;;;;;;;;;5116643;28;20493;-69
2023/06/27 05:54:28;;;;;;;4.50;2.93;;;;;;;;;;5122056;28;21001;-72
2023/06/27 05:56:55;;;;;;;5.40;3.20;;;;;;;;;;5121449;28;20509;-73
2023/06/27 05:59:23;;;;;;;4.37;2.87;;;;;;;;;;5115536;28;20507;-72
2023/06/27 06:01:49;;;;;;;11.63;3.00;;;;;;;;;;5120177;28;20469;-71
2023/06/27 06:04:16;;;;;;;4.60;2.80;;;;;;;;;;5120374;28;20492;-72
2023/06/27 06:06:43;;;;;;;5.53;3.23;;;;;;;;;;5112654;28;20447;-73
2023/06/27 06:09:09;;;;;;;4.13;2.90;;;;;;;;;;5108737;28;20458;-72
2023/06/27 06:11:36;;;;;;;6.00;2.90;;;;;;;;;;5104099;28;20443;-73
2023/06/27 06:14:03;;;;;;;5.43;2.90;;;;;;;;;;5104533;28;20454;-72
2023/06/27 06:16:31;;;;;;;4.80;2.67;;;;;;;;;;5111348;28;20442;-72
2023/06/27 06:18:58;;;;;;;7.20;3.13;;;;;;;;;;5103763;28;20489;-73
2023/06/27 06:21:24;;;;;;;7.13;3.53;;;;;;;;;;5117673;28;20482;-72
2023/06/27 06:23:50;;;;;;;4.27;3.00;;;;;;;;;;5120518;28;20498;-73
2023/06/27 06:26:17;;;;;;;5.10;2.83;;;;;;;;;;5120590;28;20478;-73
2023/06/27 06:28:43;;;;;;;4.43;2.77;;;;;;;;;;5115075;28;20478;-73
2023/06/27 06:31:11;;;;;;;5.47;3.37;;;;;;;;;;5112769;28;20514;-73
2023/06/27 06:33:39;;;;;;;10.80;3.47;;;;;;;;;;5107869;28;20458;-73
2023/06/27 06:36:06;;;;;;;8.00;3.10;;;;;;;;;;5108572;28;20455;-72
2023/06/27 06:38:33;;;;;;;6.10;2.97;;;;;;;;;;5110326;28;20570;-70
2023/06/27 06:41:00;;;;;;;5.07;2.87;;;;;;;;;;5103868;28;20451;-73
2023/06/27 06:43:26;;;;;;;4.37;2.60;;;;;;;;;;5115558;28;20517;-73
2023/06/27 06:45:53;;;;;;;5.97;3.40;;;;;;;;;;5113829;28;20469;-70
2023/06/27 06:48:20;;;;;;;7.37;3.00;;;;;;;;;;5114002;28;20903;-72
2023/06/27 06:50:48;;;;;;;5.30;3.30;;;;;;;;;;5119937;28;20446;-73
2023/06/27 06:53:14;;;;;;;5.67;3.50;;;;;;;;;;5120969;28;20450;-73
2023/06/27 06:55:40;;;;;;;5.43;3.10;;;;;;;;;;5109820;28;20510;-72
2023/06/27 06:58:07;;;;;;;3.83;3.00;;;;;;;;;;5113780;28;20793;-71
2023/06/27 07:00:33;;;;;;;7.03;2.97;;;;;;;;;;5118486;28;20541;-72
2023/06/27 07:03:00;;;;;;;9.93;4.13;;;;;;;;;;5109022;28;20535;-72
2023/06/27 07:05:26;;;;;;;5.33;3.00;;;;;;;;;;5100975;28;21205;-72
2023/06/27 07:07:54;;;;;;;4.73;3.50;;;;;;;;;;5112750;28;20477;-73
2023/06/27 07:10:20;;;;;;;5.80;3.27;;;;;;;;;;5107717;28;20530;-72
2023/06/27 07:12:46;;;;;;;7.33;3.73;;;;;;;;;;5102859;28;20983;-73
2023/06/27 07:15:14;;;;;;;6.50;3.33;;;;;;;;;;5112808;28;20446;-70
2023/06/27 07:17:40;;;;;;;5.47;2.87;;;;;;;;;;5119188;28;20455;-73
2023/06/27 07:20:08;;;;;;;6.20;3.20;;;;;;;;;;5104176;28;20478;-73
2023/06/27 07:22:35;;;;;;;6.73;3.30;;;;;;;;;;5118778;28;21019;-72
2023/06/27 07:25:02;;;;;;;6.20;2.83;;;;;;;;;;5113161;28;20461;-73
2023/06/27 07:27:29;;;;;;;7.03;2.80;;;;;;;;;;5113435;28;20473;-73
2023/06/27 07:29:55;;;;;;;6.70;3.00;;;;;;;;;;5114610;28;20454;-73
2023/06/27 07:32:22;;;;;;;6.63;3.30;;;;;;;;;;5112975;28;20542;-72
2023/06/27 07:34:48;;;;;;;6.00;2.80;;;;;;;;;;5113452;28;20540;-73
2023/06/27 07:37:14;;;;;;;4.33;2.47;;;;;;;;;;5115860;28;20442;-70
2023/06/27 07:39:41;;;;;;;3.57;2.53;;;;;;;;;;5118268;28;20523;-72
2023/06/27 07:42:09;;;;;;;4.67;2.67;;;;;;;;;;5118497;28;20489;-70
2023/06/27 07:44:36;;;;;;;5.37;2.53;;;;;;;;;;5119447;28;20557;-71
2023/06/27 07:47:02;;;;;;;7.50;1.70;;;;;;;;;;5105430;28;20450;-72
2023/06/27 07:49:28;;;;;;;5.77;1.93;;;;;;;;;;5118868;28;20485;-70
2023/06/27 07:51:57;;;;;;;5.83;2.60;;;;;;;;;;5105164;28;20477;-72
2023/06/27 07:54:26;;;;;;;3.80;2.07;;;;;;;;;;5101789;28;20470;-73
2023/06/27 07:56:54;;;;;;;6.37;2.30;;;;;;;;;;5122790;28;20450;-73
2023/06/27 07:59:22;;;;;;;6.30;2.07;;;;;;;;;;5124275;28;20446;-73
2023/06/27 08:01:48;;;;;;;2.80;1.60;;;;;;;;;;5112796;28;20825;-73
2023/06/27 08:04:15;;;;;;;5.37;1.80;;;;;;;;;;5122027;28;20865;-74
2023/06/27 08:06:42;;;;;;;4.30;1.90;;;;;;;;;;5117996;28;20450;-73
2023/06/27 08:09:08;;;;;;;7.33;2.50;;;;;;;;;;5115692;28;20514;-72
2023/06/27 08:11:35;;;;;;;4.97;1.80;;;;;;;;;;5115096;28;20482;-72
2023/06/27 08:14:02;;;;;;;3.03;2.20;;;;;;;;;;5120039;28;20525;-73
2023/06/27 08:16:29;;;;;;;5.60;1.70;;;;;;;;;;5120043;28;20477;-73
2023/06/27 08:18:56;;;;;;;6.40;1.80;;;;;;;;;;5109580;28;20474;-73
2023/06/27 08:21:22;;;;;;;3.07;1.50;;;;;;;;;;5113322;28;20505;-72
2023/06/27 08:23:49;;;;;;;2.90;1.67;;;;;;;;;;5114181;28;20471;-72
2023/06/27 08:26:15;;;;;;;5.30;2.00;;;;;;;;;;5114805;28;20473;-73
2023/06/27 08:28:42;;;;;;;3.17;1.57;;;;;;;;;;5119689;28;20454;-73
2023/06/27 08:31:08;;;;;;;5.37;1.87;;;;;;;;;;5115194;28;20442;-70
2023/06/27 08:33:36;;;;;;;3.97;1.70;;;;;;;;;;5122873;28;20464;-71
2023/06/27 08:36:02;;;;;;;5.37;1.80;;;;;;;;;;5122625;28;20548;-72
2023/06/27 08:38:29;;;;;;;2.60;1.30;;;;;;;;;;5106684;28;20451;-72
2023/06/27 08:40:55;;;;;;;5.10;1.47;;;;;;;;;;5120071;28;20928;-70
2023/06/27 08:43:22;;;;;;;2.50;1.50;;;;;;;;;;5116488;28;20560;-72
2023/06/27 08:45:49;;;;;;;3.13;1.50;;;;;;;;;;5117278;28;20442;-72
2023/06/27 08:48:16;;;;;;;3.00;1.77;;;;;;;;;;5106633;28;20451;-72
2023/06/27 08:50:45;;;;;;;3.60;1.67;;;;;;;;;;5114799;28;20481;-72
2023/06/27 08:53:14;;;;;;;7.17;1.50;;;;;;;;;;5109586;28;20481;-71
2023/06/27 08:55:43;;;;;;;2.90;1.40;;;;;;;;;;5120722;28;20450;-73
2023/06/27 08:58:12;;;;;;;3.40;1.27;;;;;;;;;;5109814;28;20451;-71
2023/06/27 09:00:38;;;;;;;3.90;1.57;;;;;;;;;;5116134;28;20477;-72
2023/06/27 09:03:05;;;;;;;7.67;1.53;;;;;;;;;;5113709;28;20482;-71
2023/06/27 09:05:33;;;;;;;3.40;1.50;;;;;;;;;;5113812;28;20545;-71
2023/06/27 09:08:00;;;;;;;3.33;1.17;;;;;;;;;;5114633;28;20477;-70
2023/06/27 09:10:27;;;;;;;5.93;1.50;;;;;;;;;;5117462;28;20481;-71
2023/06/27 09:12:54;;;;;;;5.33;1.40;;;;;;;;;;5121383;28;20480;-71
2023/06/27 09:15:20;;;;;;;2.43;1.20;;;;;;;;;;5122361;28;20443;-71
2023/06/27 09:17:47;;;;;;;4.77;1.60;;;;;;;;;;5121557;28;20490;-71
2023/06/27 09:20:16;;;;;;;3.93;1.63;;;;;;;;;;5107589;28;20772;-69
2023/06/27 09:22:43;;;;;;;2.63;1.33;;;;;;;;;;5115787;28;20906;-70
2023/06/27 09:25:15;;;;;;;7.77;1.97;;;;;;;;;;5116125;28;20471;-72
2023/06/27 09:27:41;;;;;;;3.97;1.60;;;;;;;;;;5121160;28;20450;-71
2023/06/27 09:30:09;;;;;;;2.63;1.30;;;;;;;;;;5122097;28;20454;-71
2023/06/27 09:32:36;;;;;;;5.83;2.13;;;;;;;;;;5107177;28;20508;-69
2023/06/27 09:35:03;;;;;;;2.93;1.57;;;;;;;;;;5102647;28;20473;-68
2023/06/27 09:37:30;;;;;;;3.30;1.30;;;;;;;;;;5108261;28;20447;-70
2023/06/27 09:39:57;;;;;;;4.70;1.37;;;;;;;;;;5107983;28;20458;-70
2023/06/27 09:42:25;;;;;;;4.17;1.70;;;;;;;;;;5109453;28;20455;-71
2023/06/27 09:44:51;;;;;;;5.27;1.60;;;;;;;;;;5119239;28;20513;-70
2023/06/27 09:47:18;;;;;;;3.50;1.67;;;;;;;;;;5118189;28;20527;-68
2023/06/27 09:49:44;;;;;;;2.63;1.60;;;;;;;;;;5120843;28;20474;-68
2023/06/27 09:52:12;;;;;;;4.07;1.83;;;;;;;;;;5116256;28;20483;-71
2023/06/27 09:54:41;;;;;;;3.20;1.20;;;;;;;;;;5119576;28;20446;-69
2023/06/27 09:57:12;;;;;;;5.37;2.00;;;;;;;;;;5119053;28;20450;-71
2023/06/27 09:59:40;;;;;;;4.00;1.60;;;;;;;;;;5109606;28;20473;-71
2023/06/27 10:02:12;;;;;;;5.00;1.60;;;;;;;;;;5104703;28;20483;-71
2023/06/27 10:04:38;;;;;;;5.43;2.10;;;;;;;;;;5119957;28;20517;-70
2023/06/27 10:07:05;;;;;;;4.03;1.80;;;;;;;;;;5116837;28;20480;-68
2023/06/27 10:09:32;;;;;;;3.73;1.83;;;;;;;;;;5120353;28;20924;-68
2023/06/27 10:11:58;;;;;;;5.87;1.93;;;;;;;;;;5119830;28;20489;-68
2023/06/27 10:14:25;;;;;;;2.43;1.73;;;;;;;;;;5117867;28;20507;-69
2023/06/27 10:16:54;;;;;;;6.43;2.37;;;;;;;;;;5114947;28;20474;-71
2023/06/27 10:19:21;;;;;;;4.63;2.23;;;;;;;;;;5103942;28;20469;-72
2023/06/27 10:21:48;;;;;;;4.60;2.30;;;;;;;;;;5108515;28;20482;-69
2023/06/27 10:24:15;;;;;;;8.00;2.30;;;;;;;;;;5115272;28;20479;-70
2023/06/27 10:26:50;;;;;;;4.20;2.17;;;;;;;;;;5116090;28;20473;-68
2023/06/27 10:29:16;;;;;;;3.47;1.97;;;;;;;;;;5115996;28;20453;-69
2023/06/27 10:31:45;;;;;;;5.70;2.07;;;;;;;;;;5118573;28;20453;-71
2023/06/27 10:34:17;;;;;;;3.97;1.60;;;;;;;;;;5116695;28;20453;-69
2023/06/27 10:36:59;;;;;;;5.63;1.90;;;;;;;;;;5117580;28;20439;-71
2023/06/27 10:39:27;;;;;;;3.90;1.73;;;;;;;;;;5112286;28;20449;-71
2023/06/27 10:41:55;;;;;;;5.00;1.87;;;;;;;;;;5113082;28;20451;-69
2023/06/27 10:44:22;;;;;;;3.20;1.93;;;;;;;;;;5119821;28;20494;-71
2023/06/27 10:46:50;;;;;;;3.30;1.60;;;;;;;;;;5112888;28;20866;-71
2023/06/27 10:49:34;;;;;;;2.33;1.57;;;;;;;;;;5106532;28;20454;-69
2023/06/27 10:52:01;;;;;;;4.13;1.73;;;;;;;;;;5104529;28;20502;-71
2023/06/27 10:54:28;;;;;;;2.67;1.57;;;;;;;;;;5119137;28;20471;-71
2023/06/27 10:56:54;;;;;;;3.53;1.40;;;;;;;;;;5120507;28;20476;-71
2023/06/27 10:59:22;;;;;;;3.10;1.60;;;;;;;;;;5120915;28;20450;-72
2023/06/27 11:01:53;;;;;;;3.80;1.57;;;;;;;;;;5115927;28;20619;-69
2023/06/27 11:04:22;;;;;;;2.90;1.50;;;;;;;;;;5112308;28;20506;-71
2023/06/27 11:06:48;;;;;;;3.13;1.77;;;;;;;;;;5115007;28;20446;-70
2023/06/27 11:09:16;;;;;;;3.97;1.77;;;;;;;;;;5120541;28;20480;-71
2023/06/27 11:11:52;;;;;;;4.23;1.50;;;;;;;;;;5107404;28;20455;-71
2023/06/27 11:14:32;;;;;;;2.60;1.47;;;;;;;;;;5112447;28;20504;-71
2023/06/27 11:16:59;;;;;;;4.83;1.60;;;;;;;;;;5106648;28;20454;-69
2023/06/27 11:19:27;;;;;;;4.10;1.53;;;;;;;;;;5117165;28;20550;-70
2023/06/27 11:21:56;;;;;;;2.57;1.70;;;;;;;;;;5111277;28;20452;-69
2023/06/27 11:24:23;;;;;;;3.70;1.80;;;;;;;;;;5116682;28;20474;-70
2023/06/27 11:26:50;;;;;;;4.70;1.80;;;;;;;;;;5116686;28;20442;-70
2023/06/27 11:29:17;;;;;;;3.20;1.43;;;;;;;;;;5116387;28;20457;-70
2023/06/27 11:31:43;;;;;;;4.97;1.50;;;;;;;;;;5115555;28;20529;-71
2023/06/27 11:34:10;;;;;;;4.43;1.90;;;;;;;;;;5113664;28;20548;-73
2023/06/27 11:36:38;;;;;;;4.30;1.73;;;;;;;;;;5109960;28;20450;-71
2023/06/27 11:39:06;;;;;;;6.00;2.00;;;;;;;;;;5122004;28;20909;-70
2023/06/27 11:41:32;;;;;;;3.80;1.37;;;;;;;;;;5121406;28;20442;-71
2023/06/27 11:43:58;;;;;;;2.90;1.30;;;;;;;;;;5120407;28;20560;-71
2023/06/27 11:46:25;;;;;;;5.10;1.73;;;;;;;;;;5106120;28;20498;-72
2023/06/27 11:48:51;;;;;;;6.37;1.57;;;;;;;;;;5111228;28;20527;-71
2023/06/27 11:51:18;;;;;;;8.23;2.00;;;;;;;;;;5120202;28;20478;-71
2023/06/27 11:53:50;;;;;;;3.70;1.47;;;;;;;;;;5119215;28;20511;-68
2023/06/27 11:56:17;;;;;;;6.80;1.80;;;;;;;;;;5115296;28;20432;-70
2023/06/27 11:58:45;;;;;;;6.30;1.40;;;;;;;;;;5108623;28;20565;-70
2023/06/27 12:01:12;;;;;;;2.93;1.17;;;;;;;;;;5106074;28;20474;-71
2023/06/27 12:03:39;;;;;;;3.17;1.40;;;;;;;;;;5122930;28;20452;-71
2023/06/27 12:06:05;;;;;;;3.60;1.63;;;;;;;;;;5121206;28;20965;-72
2023/06/27 12:08:32;;;;;;;5.70;1.30;;;;;;;;;;5123100;28;20445;-70
2023/06/27 12:11:02;;;;;;;5.90;1.83;;;;;;;;;;5114380;28;20508;-71
2023/06/27 12:13:29;;;;;;;3.37;1.33;;;;;;;;;;5124228;28;20829;-70
2023/06/27 12:15:56;;;;;;;3.43;1.57;;;;;;;;;;5121434;28;20943;-70
2023/06/27 12:18:24;;;;;;;5.80;1.67;;;;;;;;;;5117851;28;20442;-71
2023/06/27 12:20:51;;;;;;;5.07;1.50;;;;;;;;;;5110922;28;20446;-71
2023/06/27 12:23:17;;;;;;;8.60;1.90;;;;;;;;;;5121826;28;20499;-69
2023/06/27 12:25:50;;;;;;;4.70;1.60;;;;;;;;;;5122345;28;20520;-71
2023/06/27 12:28:17;;;;;;;3.07;1.53;;;;;;;;;;5116067;28;20446;-69
2023/06/27 12:30:44;;;;;;;5.13;1.80;;;;;;;;;;5105854;28;20451;-70
2023/06/27 12:33:11;;;;;;;3.50;1.20;;;;;;;;;;5121463;28;20481;-71
2023/06/27 12:35:37;;;;;;;3.87;1.63;;;;;;;;;;5119733;28;20852;-71
2023/06/27 12:38:05;;;;;;;2.80;1.20;;;;;;;;;;5118832;28;20453;-70
2023/06/27 12:40:31;;;;;;;1.97;1.10;;;;;;;;;;5107849;28;20457;-70
2023/06/27 12:42:58;;;;;;;5.30;1.53;;;;;;;;;;5121044;28;20534;-70
2023/06/27 12:45:26;;;;;;;3.87;1.43;;;;;;;;;;5121899;28;20480;-70
2023/06/27 12:47:52;;;;;;;3.00;1.30;;;;;;;;;;5120679;28;20465;-72
2023/06/27 12:50:19;;;;;;;3.10;1.40;;;;;;;;;;5106060;28;20446;-71
2023/06/27 12:52:49;;;;;;;3.30;1.60;;;;;;;;;;5112610;28;20481;-71
2023/06/27 12:55:15;;;;;;;3.67;1.73;;;;;;;;;;5113402;28;20451;-71
2023/06/27 12:57:42;;;;;;;12.03;2.30;;;;;;;;;;5118157;28;20446;-72
2023/06/27 13:00:09;;;;;;;3.10;1.40;;;;;;;;;;5115356;28;20485;-71
2023/06/27 13:02:37;;;;;;;3.90;1.37;;;;;;;;;;5115529;28;20466;-70
2023/06/27 13:05:04;;;;;;;4.43;1.90;;;;;;;;;;5122217;28;20581;-71
2023/06/27 13:07:30;;;;;;;11.50;1.70;;;;;;;;;;5110527;28;20523;-70
2023/06/27 13:09:59;;;;;;;6.63;1.67;;;;;;;;;;5112748;28;20478;-71
2023/06/27 13:12:25;;;;;;;3.83;1.50;;;;;;;;;;5118404;28;20523;-71
2023/06/27 13:14:52;;;;;;;7.60;1.20;;;;;;;;;;5121064;28;20480;-72
2023/06/27 13:17:19;;;;;;;3.23;1.60;;;;;;;;;;5120920;28;20519;-72
2023/06/27 13:19:46;;;;;;;5.20;1.63;;;;;;;;;;5121402;28;20490;-72
2023/06/27 13:22:13;;;;;;;5.47;2.00;;;;;;;;;;5114119;28;20551;-71
2023/06/27 13:24:40;;;;;;;4.90;2.20;;;;;;;;;;5115683;28;20524;-70
2023/06/27 13:27:07;;;;;;;3.73;1.63;;;;;;;;;;5122116;28;20452;-70
2023/06/27 13:29:33;;;;;;;2.43;1.50;;;;;;;;;;5117884;28;20509;-72
2023/06/27 13:32:00;;;;;;;2.20;1.60;;;;;;;;;;5117861;28;20461;-72
2023/06/27 13:34:26;;;;;;;3.70;1.57;;;;;;;;;;5119459;28;20486;-72
2023/06/27 13:36:55;;;;;;;4.37;1.57;;;;;;;;;;5108964;28;20444;-72
2023/06/27 13:39:22;;;;;;;3.70;1.50;;;;;;;;;;5117330;28;20458;-72
2023/06/27 13:41:48;;;;;;;4.67;1.67;;;;;;;;;;5122126;28;20443;-72
2023/06/27 13:44:15;;;;;;;3.30;1.40;;;;;;;;;;5121769;28;20517;-70
2023/06/27 13:46:41;;;;;;;4.10;1.60;;;;;;;;;;5111908;28;20538;-72
2023/06/27 13:49:09;;;;;;;5.17;2.03;;;;;;;;;;5117062;28;20793;-71
2023/06/27 13:51:36;;;;;;;3.40;1.90;;;;;;;;;;5117641;28;20449;-72
2023/06/27 13:54:04;;;;;;;5.40;1.80;;;;;;;;;;5113229;28;20458;-72
2023/06/27 13:56:30;;;;;;;5.03;1.50;;;;;;;;;;5115080;28;20794;-72
2023/06/27 13:58:58;;;;;;;3.97;1.47;;;;;;;;;;5114136;28;20469;-70
2023/06/27 14:01:24;;;;;;;4.00;2.40;;;;;;;;;;5118141;28;20517;-72
2023/06/27 14:03:50;;;;;;;7.57;3.93;;;;;;;;;;5112525;28;20505;-72
2023/06/27 14:06:17;;;;;;;7.70;5.00;;;;;;;;;;5117851;28;20542;-71
2023/06/27 14:08:43;;;;;;;6.73;4.97;;;;;;;;;;5107414;28;20512;-72
2023/06/27 14:11:13;;;;;;;5.50;3.37;;;;;;;;;;5115878;28;20442;-72
2023/06/27 14:13:39;;;;;;;4.53;1.80;;;;;;;;;;5121709;28;20453;-72
2023/06/27 14:16:06;;;;;;;7.20;1.60;;;;;;;;;;5120782;28;20446;-71
2023/06/27 14:18:32;;;;;;;4.37;1.70;;;;;;;;;;5114993;28;20900;-72
2023/06/27 14:20:59;;;;;;;2.80;1.77;;;;;;;;;;5117613;28;20467;-72
2023/06/27 14:23:27;;;;;;;3.50;1.50;;;;;;;;;;5110353;28;20478;-72
2023/06/27 14:25:53;;;;;;;5.10;1.50;;;;;;;;;;5106582;28;21077;-72
2023/06/27 14:28:22;;;;;;;4.47;1.70;;;;;;;;;;5110257;28;20863;-71
2023/06/27 14:30:49;;;;;;;2.57;1.30;;;;;;;;;;5114782;28;20552;-71
2023/06/27 14:33:20;;;;;;;4.90;1.30;;;;;;;;;;5117265;28;20468;-71
2023/06/27 14:35:47;;;;;;;3.63;1.23;;;;;;;;;;5108761;28;20451;-70
2023/06/27 14:38:13;;;;;;;3.67;1.30;;;;;;;;;;5107975;28;20482;-71
2023/06/27 14:40:40;;;;;;;5.20;1.57;;;;;;;;;;5118479;28;20959;-72
2023/06/27 14:43:06;;;;;;;5.07;1.40;;;;;;;;;;5120269;28;20459;-69